Time;durP1;ratioP1;P1;durP2;ratioP2;P2;SDS_P1;SDS_P2;PMS_P1;PMS_P2;Temp;Humidity;BMP_temperature;BMP_pressure;BME280_temperature;BME280_humidity;BME280_pressure;Samples;Min_cycle;Max_cycle;Signal;HPM_P1;HPM_P2
2022/08/26 00:01:26;;;;;;;4.05;2.60;;;;;;;;;;4991011;28;20026;-69
2022/08/26 00:03:52;;;;;;;4.80;2.90;;;;;;;;;;4991972;28;20030;-69
2022/08/26 00:06:19;;;;;;;4.57;2.70;;;;;;;;;;4989173;28;20259;-69
2022/08/26 00:08:45;;;;;;;4.18;3.00;;;;;;;;;;4991898;28;20105;-69
2022/08/26 00:11:11;;;;;;;3.10;2.47;;;;;;;;;;4992585;28;20026;-69
2022/08/26 00:13:38;;;;;;;5.68;2.63;;;;;;;;;;4994838;28;20398;-69
2022/08/26 00:16:06;;;;;;;3.50;2.72;;;;;;;;;;4990448;28;20030;-70
2022/08/26 00:18:32;;;;;;;4.35;2.75;;;;;;;;;;4989066;28;20109;-70
2022/08/26 00:20:58;;;;;;;3.58;2.28;;;;;;;;;;4994045;28;20064;-70
2022/08/26 00:23:24;;;;;;;4.88;2.97;;;;;;;;;;4990038;28;20030;-69
2022/08/26 00:25:51;;;;;;;2.97;2.53;;;;;;;;;;4990612;28;20110;-69
2022/08/26 00:28:18;;;;;;;3.72;2.25;;;;;;;;;;4990544;28;20042;-69
2022/08/26 00:30:47;;;;;;;4.30;2.78;;;;;;;;;;4990415;28;20069;-70
2022/08/26 00:33:14;;;;;;;3.05;2.58;;;;;;;;;;4990642;28;20495;-69
2022/08/26 00:35:41;;;;;;;3.42;2.80;;;;;;;;;;4989542;28;20480;-69
2022/08/26 00:38:07;;;;;;;3.20;2.90;;;;;;;;;;4995251;28;20030;-70
2022/08/26 00:40:35;;;;;;;3.03;2.47;;;;;;;;;;4989934;28;20030;-70
2022/08/26 00:43:02;;;;;;;4.15;2.45;;;;;;;;;;4991936;28;20885;-71
2022/08/26 00:45:33;;;;;;;4.03;2.70;;;;;;;;;;4998195;28;20030;-73
2022/08/26 00:48:02;;;;;;;3.90;2.58;;;;;;;;;;4994722;28;20410;-70
2022/08/26 00:50:31;;;;;;;3.63;3.10;;;;;;;;;;5000787;28;20192;-72
2022/08/26 00:52:58;;;;;;;4.03;2.83;;;;;;;;;;4992905;28;20124;-75
2022/08/26 00:55:29;;;;;;;5.13;2.92;;;;;;;;;;4999561;28;20117;-70
2022/08/26 00:57:55;;;;;;;7.82;2.90;;;;;;;;;;4997457;28;20024;-75
2022/08/26 01:00:26;;;;;;;2.97;2.60;;;;;;;;;;4996851;28;20368;-75
2022/08/26 01:02:54;;;;;;;3.00;2.70;;;;;;;;;;4997130;28;20018;-75
2022/08/26 01:05:20;;;;;;;7.03;2.80;;;;;;;;;;4996967;28;20018;-75
2022/08/26 01:07:46;;;;;;;5.75;3.03;;;;;;;;;;4999480;28;20116;-69
2022/08/26 01:10:15;;;;;;;3.25;2.70;;;;;;;;;;4993999;28;20022;-72
2022/08/26 01:12:46;;;;;;;3.30;2.78;;;;;;;;;;4998698;28;20042;-72
2022/08/26 01:15:18;;;;;;;3.42;3.13;;;;;;;;;;4996482;28;20018;-72
2022/08/26 01:17:44;;;;;;;3.17;2.40;;;;;;;;;;4999950;28;20018;-73
2022/08/26 01:20:17;;;;;;;9.43;2.97;;;;;;;;;;4993576;28;20138;-69
2022/08/26 01:22:46;;;;;;;4.15;2.60;;;;;;;;;;4997106;28;20042;-75
2022/08/26 01:25:13;;;;;;;3.45;2.72;;;;;;;;;;4995698;28;20025;-70
2022/08/26 01:27:39;;;;;;;4.53;2.72;;;;;;;;;;4997356;28;20357;-70
2022/08/26 01:30:06;;;;;;;3.45;2.30;;;;;;;;;;4995882;28;20022;-70
2022/08/26 01:32:32;;;;;;;4.47;2.22;;;;;;;;;;4995948;28;20843;-73
2022/08/26 01:34:59;;;;;;;3.88;2.10;;;;;;;;;;4995964;28;20089;-74
2022/08/26 01:37:26;;;;;;;5.03;2.40;;;;;;;;;;4996931;28;20028;-69
2022/08/26 01:39:54;;;;;;;3.38;2.45;;;;;;;;;;4997379;28;20031;-73
2022/08/26 01:42:22;;;;;;;3.08;2.58;;;;;;;;;;4996497;28;20033;-76
2022/08/26 01:44:53;;;;;;;3.45;2.42;;;;;;;;;;4995462;28;20105;-72
2022/08/26 01:47:19;;;;;;;;;;;;;;;;;;4995132;28;20391;-73
2022/08/26 01:49:47;;;;;;;4.05;2.33;;;;;;;;;;4994574;28;20369;-68
2022/08/26 01:52:16;;;;;;;3.53;2.15;;;;;;;;;;4997419;28;20133;-70
2022/08/26 01:54:42;;;;;;;3.60;2.25;;;;;;;;;;4995618;28;20046;-69
2022/08/26 01:57:08;;;;;;;4.55;2.42;;;;;;;;;;4996709;28;20026;-71
2022/08/26 01:59:35;;;;;;;3.40;2.67;;;;;;;;;;4995574;28;20022;-69
2022/08/26 02:02:01;;;;;;;3.70;2.50;;;;;;;;;;4994724;28;20026;-69
2022/08/26 02:04:33;;;;;;;2.85;2.22;;;;;;;;;;5002359;28;20026;-69
2022/08/26 02:06:59;;;;;;;;;;;;;;;;;;5002454;28;20036;-69
2022/08/26 02:09:25;;;;;;;4.03;2.35;;;;;;;;;;4996196;28;19906;-69
2022/08/26 02:11:52;;;;;;;2.92;2.60;;;;;;;;;;4999548;28;20030;-69
2022/08/26 02:14:27;;;;;;;6.32;2.55;;;;;;;;;;4998174;28;20109;-69
2022/08/26 02:16:54;;;;;;;3.58;2.60;;;;;;;;;;4993459;28;20479;-70
2022/08/26 02:19:27;;;;;;;3.58;2.70;;;;;;;;;;4999190;28;20022;-70
2022/08/26 02:21:53;;;;;;;3.05;2.55;;;;;;;;;;4981594;28;20447;-69
2022/08/26 02:24:22;;;;;;;3.10;2.80;;;;;;;;;;4991109;28;20096;-69
2022/08/26 02:26:48;;;;;;;4.70;3.40;;;;;;;;;;4989315;28;20064;-69
2022/08/26 02:29:24;;;;;;;3.10;2.80;;;;;;;;;;4992455;28;20281;-69
2022/08/26 02:31:51;;;;;;;4.55;3.30;;;;;;;;;;4993395;28;20049;-69
2022/08/26 02:34:19;;;;;;;6.00;3.10;;;;;;;;;;4990606;28;20375;-70
2022/08/26 02:36:46;;;;;;;5.68;2.72;;;;;;;;;;4993003;28;20029;-69
2022/08/26 02:39:12;;;;;;;4.40;2.78;;;;;;;;;;4989223;28;20431;-69
2022/08/26 02:41:38;;;;;;;2.88;2.50;;;;;;;;;;4998065;28;20029;-69
2022/08/26 02:44:05;;;;;;;3.90;2.88;;;;;;;;;;4990120;28;20037;-69
2022/08/26 02:46:32;;;;;;;3.60;2.67;;;;;;;;;;4989164;28;20415;-69
2022/08/26 02:49:00;;;;;;;4.22;2.60;;;;;;;;;;4989570;28;20082;-69
2022/08/26 02:51:26;;;;;;;3.45;2.60;;;;;;;;;;4995527;28;20139;-69
2022/08/26 02:53:52;;;;;;;4.57;2.78;;;;;;;;;;4989056;28;20084;-69
2022/08/26 02:56:18;;;;;;;4.22;3.00;;;;;;;;;;4991438;28;20159;-69
2022/08/26 02:58:44;;;;;;;4.07;2.80;;;;;;;;;;4990393;28;20109;-69
2022/08/26 03:01:21;;;;;;;2.90;2.60;;;;;;;;;;4990013;28;20030;-69
2022/08/26 03:03:47;;;;;;;4.22;2.85;;;;;;;;;;4993259;28;20030;-69
2022/08/26 03:06:13;;;;;;;2.95;2.58;;;;;;;;;;4986411;28;20077;-69
2022/08/26 03:08:39;;;;;;;3.90;2.78;;;;;;;;;;4993079;28;20030;-69
2022/08/26 03:11:06;;;;;;;3.53;2.85;;;;;;;;;;4993241;28;20022;-70
2022/08/26 03:13:32;;;;;;;2.88;2.63;;;;;;;;;;4989877;28;20045;-69
2022/08/26 03:16:00;;;;;;;4.63;2.90;;;;;;;;;;4993950;28;20022;-69
2022/08/26 03:18:26;;;;;;;3.63;2.97;;;;;;;;;;4985097;28;20101;-69
2022/08/26 03:20:52;;;;;;;4.15;2.85;;;;;;;;;;4990150;28;20061;-69
2022/08/26 03:23:19;;;;;;;3.45;2.65;;;;;;;;;;4987160;28;20033;-69
2022/08/26 03:25:52;;;;;;;3.08;2.78;;;;;;;;;;4987443;28;20499;-69
2022/08/26 03:28:18;;;;;;;3.67;2.85;;;;;;;;;;4985067;28;20395;-69
2022/08/26 03:30:45;;;;;;;2.80;2.50;;;;;;;;;;4989268;28;20022;-69
2022/08/26 03:33:11;;;;;;;3.33;2.80;;;;;;;;;;4988086;28;20037;-69
2022/08/26 03:35:39;;;;;;;3.33;2.38;;;;;;;;;;4985991;28;20534;-69
2022/08/26 03:38:07;;;;;;;2.75;2.45;;;;;;;;;;4976690;28;20676;-69
2022/08/26 03:40:34;;;;;;;4.43;2.70;;;;;;;;;;4990658;28;20109;-69
2022/08/26 03:43:00;;;;;;;2.75;2.55;;;;;;;;;;4990127;28;20127;-69
2022/08/26 03:45:27;;;;;;;3.20;2.70;;;;;;;;;;4981250;28;20029;-69
2022/08/26 03:47:53;;;;;;;5.07;2.63;;;;;;;;;;4986836;28;20026;-69
2022/08/26 03:50:21;;;;;;;4.68;2.60;;;;;;;;;;4987262;28;20122;-69
2022/08/26 03:52:47;;;;;;;5.15;2.88;;;;;;;;;;4987799;28;20129;-69
2022/08/26 03:55:14;;;;;;;2.95;2.60;;;;;;;;;;4985455;28;20037;-69
2022/08/26 03:57:40;;;;;;;2.83;2.40;;;;;;;;;;4986522;28;20037;-69
2022/08/26 04:00:08;;;;;;;4.95;2.53;;;;;;;;;;4987865;28;20186;-69
2022/08/26 04:02:34;;;;;;;4.20;2.88;;;;;;;;;;4985010;28;20026;-69
2022/08/26 04:17:03;;;;;;;6.65;2.67;;;;;;;;;;5111900;27;20442;-77
2022/08/26 04:19:30;;;;;;;2.90;2.47;;;;;;;;;;5111526;28;20047;-78
2022/08/26 04:21:56;;;;;;;4.50;2.67;;;;;;;;;;5109551;28;20107;-78
2022/08/26 04:24:23;;;;;;;2.85;2.60;;;;;;;;;;5111203;28;20035;-73
2022/08/26 04:32:00;;;;;;;2.92;2.60;;;;;;;;;;5064376;28;20048;-75
2022/08/26 04:34:27;;;;;;;3.40;3.05;;;;;;;;;;5070721;28;20024;-77
2022/08/26 04:36:54;;;;;;;3.40;2.58;;;;;;;;;;5070020;28;20016;-76
2022/08/26 04:39:21;;;;;;;5.93;2.90;;;;;;;;;;5068742;28;20021;-76
2022/08/26 04:41:48;;;;;;;3.00;2.50;;;;;;;;;;5069886;28;20112;-75
2022/08/26 04:44:15;;;;;;;3.55;2.83;;;;;;;;;;5069829;28;20021;-75
2022/08/26 04:46:42;;;;;;;2.63;2.42;;;;;;;;;;5068344;28;20037;-77
2022/08/26 04:49:08;;;;;;;5.95;3.25;;;;;;;;;;5068460;28;20035;-75
2022/08/26 04:51:35;;;;;;;4.72;2.63;;;;;;;;;;5069626;28;20037;-76
2022/08/26 04:54:02;;;;;;;4.32;2.95;;;;;;;;;;5069814;28;20424;-77
2022/08/26 04:56:30;;;;;;;3.20;2.90;;;;;;;;;;5068180;28;20056;-76
2022/08/26 04:58:56;;;;;;;3.20;2.90;;;;;;;;;;5069606;28;20476;-75
2022/08/26 05:01:22;;;;;;;5.03;2.60;;;;;;;;;;5067411;28;20035;-76
2022/08/26 05:03:49;;;;;;;2.90;2.70;;;;;;;;;;5069492;28;20536;-76
2022/08/26 05:06:16;;;;;;;3.28;2.95;;;;;;;;;;5067963;28;20119;-71
2022/08/26 05:08:42;;;;;;;4.88;2.78;;;;;;;;;;5069380;28;20103;-72
2022/08/26 05:11:09;;;;;;;4.03;2.50;;;;;;;;;;5069020;28;20028;-73
2022/08/26 05:13:37;;;;;;;4.45;2.75;;;;;;;;;;5069217;28;20013;-72
2022/08/26 05:16:04;;;;;;;8.68;3.05;;;;;;;;;;5066123;28;20400;-70
2022/08/26 05:18:30;;;;;;;3.22;2.92;;;;;;;;;;5054588;28;20058;-77
2022/08/26 05:20:56;;;;;;;4.55;2.58;;;;;;;;;;5055751;28;20025;-75
2022/08/26 05:23:24;;;;;;;4.07;2.85;;;;;;;;;;5055503;28;20377;-76
2022/08/26 05:25:51;;;;;;;4.00;2.42;;;;;;;;;;5054274;28;20076;-73
2022/08/26 05:28:18;;;;;;;2.95;2.33;;;;;;;;;;5055936;28;20021;-74
2022/08/26 05:30:45;;;;;;;2.95;2.50;;;;;;;;;;5049984;28;20136;-78
2022/08/26 05:33:11;;;;;;;3.33;2.40;;;;;;;;;;5035911;28;20036;-73
2022/08/26 05:35:38;;;;;;;3.15;2.47;;;;;;;;;;5035697;28;20163;-74
2022/08/26 05:38:06;;;;;;;2.55;2.35;;;;;;;;;;5034139;28;20087;-76
2022/08/26 05:40:34;;;;;;;5.25;2.90;;;;;;;;;;5034330;28;20029;-76
2022/08/26 05:43:00;;;;;;;4.60;4.20;;;;;;;;;;5035573;28;20116;-75
2022/08/26 05:45:26;;;;;;;6.18;3.45;;;;;;;;;;5035466;28;20048;-72
2022/08/26 05:47:52;;;;;;;5.55;3.50;;;;;;;;;;5034074;28;20117;-77
2022/08/26 05:50:20;;;;;;;8.55;5.13;;;;;;;;;;5035527;28;20467;-76
2022/08/26 05:52:50;;;;;;;4.43;3.97;;;;;;;;;;5050410;28;20028;-76
2022/08/26 05:55:16;;;;;;;9.95;3.88;;;;;;;;;;5052488;28;20052;-71
2022/08/26 05:57:43;;;;;;;7.85;4.70;;;;;;;;;;5055242;28;20473;-72
2022/08/26 06:00:10;;;;;;;17.08;11.10;;;;;;;;;;5055174;28;20108;-74
2022/08/26 06:02:38;;;;;;;26.83;17.45;;;;;;;;;;5055216;28;20048;-74
2022/08/26 06:05:04;;;;;;;22.85;14.40;;;;;;;;;;5055138;28;20040;-74
2022/08/26 06:10:16;;;;;;;19.10;10.90;;;;;;;;;;5053646;28;20043;-73
2022/08/26 06:12:42;;;;;;;9.38;6.95;;;;;;;;;;5055091;28;20025;-74
2022/08/26 06:15:08;;;;;;;6.57;3.90;;;;;;;;;;5054960;28;20035;-70
2022/08/26 06:17:34;;;;;;;3.72;2.40;;;;;;;;;;5054927;28;20112;-69
2022/08/26 06:20:00;;;;;;;3.78;2.40;;;;;;;;;;5054530;28;20095;-70
2022/08/26 06:27:56;;;;;;;5.60;2.40;;;;;;;;;;5053801;28;20090;-71
2022/08/26 06:30:22;;;;;;;3.83;2.47;;;;;;;;;;5054194;28;20496;-74
2022/08/26 06:32:48;;;;;;;4.97;2.53;;;;;;;;;;5054809;28;20103;-70
2022/08/26 06:35:15;;;;;;;3.20;2.42;;;;;;;;;;5052902;28;20018;-74
2022/08/26 06:37:41;;;;;;;3.15;2.50;;;;;;;;;;5054576;28;20033;-74
2022/08/26 06:40:08;;;;;;;2.97;2.05;;;;;;;;;;5054568;28;20487;-74
2022/08/26 06:42:34;;;;;;;3.03;2.33;;;;;;;;;;5053789;28;20033;-72
2022/08/26 06:45:01;;;;;;;5.07;2.65;;;;;;;;;;5037466;28;20163;-72
2022/08/26 06:47:28;;;;;;;3.67;2.25;;;;;;;;;;5039022;28;20246;-72
2022/08/26 06:49:54;;;;;;;2.60;2.03;;;;;;;;;;5033550;28;20017;-68
2022/08/26 06:52:20;;;;;;;3.35;2.50;;;;;;;;;;5040547;28;20100;-72
2022/08/26 06:54:46;;;;;;;4.00;2.72;;;;;;;;;;5040256;28;20362;-71
2022/08/26 06:57:13;;;;;;;4.93;2.28;;;;;;;;;;5040777;28;20036;-72
2022/08/26 06:59:39;;;;;;;4.05;2.40;;;;;;;;;;5034698;28;20048;-72
2022/08/26 07:02:05;;;;;;;3.20;2.08;;;;;;;;;;5041580;28;20029;-73
2022/08/26 07:04:31;;;;;;;3.72;2.28;;;;;;;;;;5039536;28;20033;-69
2022/08/26 07:06:58;;;;;;;2.40;2.08;;;;;;;;;;5040278;28;20082;-68
2022/08/26 07:09:26;;;;;;;3.92;2.22;;;;;;;;;;5038614;28;20473;-69
2022/08/26 07:11:54;;;;;;;3.22;2.33;;;;;;;;;;5037163;28;20476;-71
2022/08/26 07:14:21;;;;;;;4.95;3.40;;;;;;;;;;5037062;28;20059;-72
2022/08/26 07:16:47;;;;;;;3.53;2.88;;;;;;;;;;5034918;28;20147;-69
2022/08/26 07:19:15;;;;;;;4.32;2.65;;;;;;;;;;5036558;28;20025;-71
2022/08/26 07:21:41;;;;;;;4.35;2.60;;;;;;;;;;5040504;28;20055;-70
2022/08/26 07:24:08;;;;;;;5.13;3.22;;;;;;;;;;5032758;28;20021;-69
2022/08/26 07:26:34;;;;;;;5.57;2.88;;;;;;;;;;5033375;28;20053;-73
2022/08/26 07:29:00;;;;;;;8.23;3.15;;;;;;;;;;5036733;28;20059;-77
2022/08/26 07:31:28;;;;;;;3.95;2.70;;;;;;;;;;5038530;28;20047;-68
2022/08/26 07:33:55;;;;;;;4.93;2.72;;;;;;;;;;5036801;28;20465;-69
2022/08/26 07:36:22;;;;;;;3.92;2.60;;;;;;;;;;5029167;28;20446;-69
2022/08/26 07:38:49;;;;;;;4.15;2.78;;;;;;;;;;5030135;28;20025;-70
2022/08/26 07:41:16;;;;;;;5.18;2.60;;;;;;;;;;5032081;28;20021;-69
2022/08/26 07:43:42;;;;;;;3.65;2.83;;;;;;;;;;5029438;28;20022;-68
2022/08/26 07:46:09;;;;;;;5.03;2.72;;;;;;;;;;5031607;28;20028;-68
2022/08/26 07:48:36;;;;;;;4.32;2.47;;;;;;;;;;5032231;28;20025;-71
2022/08/26 07:51:03;;;;;;;3.10;2.17;;;;;;;;;;5032697;28;20044;-68
2022/08/26 07:53:29;;;;;;;3.08;2.60;;;;;;;;;;5029935;28;20147;-70
2022/08/26 07:55:57;;;;;;;3.47;2.60;;;;;;;;;;5030549;28;20029;-69
2022/08/26 07:58:24;;;;;;;3.10;2.72;;;;;;;;;;5026414;28;20198;-69
2022/08/26 08:00:50;;;;;;;3.65;2.75;;;;;;;;;;5030241;28;20029;-70
2022/08/26 08:03:16;;;;;;;4.40;2.70;;;;;;;;;;5033100;28;20108;-69
2022/08/26 08:05:43;;;;;;;3.28;2.50;;;;;;;;;;5030848;28;20457;-69
2022/08/26 08:08:09;;;;;;;3.63;2.35;;;;;;;;;;5028012;28;20381;-69
2022/08/26 08:10:36;;;;;;;2.92;2.28;;;;;;;;;;5028976;28;20014;-69
2022/08/26 08:13:05;;;;;;;3.42;3.00;;;;;;;;;;5033230;28;20025;-68
2022/08/26 08:15:32;;;;;;;3.63;2.35;;;;;;;;;;5033626;28;20043;-69
2022/08/26 08:17:59;;;;;;;5.30;2.85;;;;;;;;;;5029461;28;20104;-69
2022/08/26 08:20:27;;;;;;;4.78;2.50;;;;;;;;;;5030604;28;20022;-71
2022/08/26 08:22:53;;;;;;;3.08;2.47;;;;;;;;;;5031815;28;20025;-70
2022/08/26 08:25:20;;;;;;;4.13;2.50;;;;;;;;;;5028221;28;20034;-69
2022/08/26 08:27:49;;;;;;;6.55;2.88;;;;;;;;;;5029968;28;20084;-71
2022/08/26 08:30:16;;;;;;;4.05;2.50;;;;;;;;;;5033726;28;20045;-70
2022/08/26 08:32:43;;;;;;;4.43;2.75;;;;;;;;;;5031025;28;20053;-69
2022/08/26 08:35:10;;;;;;;5.78;2.60;;;;;;;;;;5032866;28;20096;-69
2022/08/26 08:37:36;;;;;;;5.28;2.90;;;;;;;;;;5040222;28;20075;-69
2022/08/26 08:40:04;;;;;;;3.75;2.38;;;;;;;;;;5034819;28;20087;-69
2022/08/26 08:42:48;;;;;;;10.85;2.85;;;;;;;;;;5037267;28;20060;-69
2022/08/26 08:45:17;;;;;;;2.72;2.28;;;;;;;;;;5027384;28;20128;-69
2022/08/26 08:47:55;;;;;;;6.28;2.75;;;;;;;;;;5033806;28;20484;-69
2022/08/26 08:50:29;;;;;;;3.25;2.35;;;;;;;;;;5028572;28;20485;-69
2022/08/26 08:53:01;;;;;;;4.30;3.03;;;;;;;;;;5035099;28;20025;-69
2022/08/26 08:55:30;;;;;;;3.55;2.58;;;;;;;;;;5035927;28;20059;-69
2022/08/26 08:58:01;;;;;;;4.25;2.40;;;;;;;;;;5033438;28;20356;-69
2022/08/26 09:00:31;;;;;;;3.90;2.47;;;;;;;;;;5032884;28;20052;-69
2022/08/26 09:03:01;;;;;;;3.83;2.38;;;;;;;;;;5031624;28;20028;-69
2022/08/26 09:05:31;;;;;;;2.75;2.45;;;;;;;;;;5035087;28;20108;-69
2022/08/26 09:08:08;;;;;;;2.80;2.38;;;;;;;;;;5031157;28;20025;-70
2022/08/26 09:10:36;;;;;;;2.90;2.45;;;;;;;;;;5031147;28;20537;-70
2022/08/26 09:13:05;;;;;;;5.50;2.47;;;;;;;;;;5035143;28;20297;-70
2022/08/26 09:15:50;;;;;;;3.50;2.13;;;;;;;;;;5032624;28;20053;-70
2022/08/26 09:18:35;;;;;;;6.80;2.53;;;;;;;;;;5036382;28;20045;-70
2022/08/26 09:21:04;;;;;;;3.20;2.50;;;;;;;;;;5031218;28;20017;-70
2022/08/26 09:23:30;;;;;;;2.60;2.33;;;;;;;;;;5034429;28;20026;-69
2022/08/26 09:26:01;;;;;;;4.72;2.50;;;;;;;;;;5032070;28;20037;-70
2022/08/26 09:28:29;;;;;;;2.40;2.20;;;;;;;;;;5039044;28;20036;-69
2022/08/26 09:31:21;;;;;;;4.63;2.28;;;;;;;;;;5040208;28;20041;-69
2022/08/26 09:33:48;;;;;;;4.63;2.80;;;;;;;;;;5039283;28;20037;-70
2022/08/26 09:36:17;;;;;;;3.30;2.00;;;;;;;;;;5036694;28;20655;-70
2022/08/26 09:38:44;;;;;;;5.60;2.28;;;;;;;;;;5033563;28;20025;-69
2022/08/26 09:41:24;;;;;;;2.15;1.95;;;;;;;;;;5032768;28;20017;-69
2022/08/26 09:44:09;;;;;;;2.03;1.83;;;;;;;;;;5035820;28;20059;-69
2022/08/26 09:46:36;;;;;;;2.97;2.20;;;;;;;;;;5030759;28;20125;-69
2022/08/26 09:49:20;;;;;;;4.13;2.22;;;;;;;;;;5033361;28;20021;-69
2022/08/26 09:51:47;;;;;;;5.43;2.25;;;;;;;;;;5036118;28;20492;-68
2022/08/26 09:54:31;;;;;;;3.17;2.42;;;;;;;;;;5041460;28;20033;-69
2022/08/26 09:57:18;;;;;;;3.40;1.92;;;;;;;;;;5039424;28;20055;-69
2022/08/26 09:59:44;;;;;;;3.08;2.17;;;;;;;;;;5035797;28;20374;-69
2022/08/26 10:02:23;;;;;;;2.90;1.90;;;;;;;;;;5037370;28;20020;-69
2022/08/26 10:04:55;;;;;;;3.92;2.08;;;;;;;;;;5038946;28;20358;-69
2022/08/26 10:07:41;;;;;;;4.75;2.28;;;;;;;;;;5040119;28;20590;-69
2022/08/26 10:10:10;;;;;;;2.20;1.75;;;;;;;;;;5034348;28;20090;-69
2022/08/26 10:12:38;;;;;;;2.85;1.70;;;;;;;;;;5030049;28;20025;-70
2022/08/26 10:15:08;;;;;;;5.20;2.10;;;;;;;;;;5040741;28;20465;-70
2022/08/26 10:17:40;;;;;;;2.10;1.80;;;;;;;;;;5038299;28;20025;-70
2022/08/26 10:20:32;;;;;;;3.15;1.92;;;;;;;;;;5041140;28;20031;-70
2022/08/26 10:23:02;;;;;;;2.00;1.70;;;;;;;;;;5033558;28;20626;-71
2022/08/26 10:25:33;;;;;;;2.40;1.77;;;;;;;;;;5034180;28;20452;-70
2022/08/26 10:28:04;;;;;;;2.65;1.50;;;;;;;;;;5040317;28;20120;-70
2022/08/26 10:30:37;;;;;;;3.28;2.10;;;;;;;;;;5041495;28;20088;-70
2022/08/26 10:33:08;;;;;;;2.55;1.40;;;;;;;;;;5037573;28;20029;-69
2022/08/26 10:35:36;;;;;;;1.85;1.40;;;;;;;;;;5034087;28;20095;-70
2022/08/26 10:38:07;;;;;;;2.03;1.48;;;;;;;;;;5036657;28;20029;-70
2022/08/26 10:40:51;;;;;;;2.95;1.50;;;;;;;;;;5033419;28;20690;-70
2022/08/26 10:43:17;;;;;;;2.28;1.58;;;;;;;;;;5035208;28;20128;-70
2022/08/26 10:45:48;;;;;;;2.60;1.85;;;;;;;;;;5026794;28;20033;-70
2022/08/26 10:48:22;;;;;;;2.15;1.88;;;;;;;;;;5031529;28;20108;-70
2022/08/26 10:50:49;;;;;;;2.67;1.40;;;;;;;;;;5030093;28;20021;-70
2022/08/26 10:53:41;;;;;;;3.85;1.83;;;;;;;;;;5038244;28;20013;-70
2022/08/26 10:56:08;;;;;;;2.05;1.60;;;;;;;;;;5037921;28;20496;-70
2022/08/26 10:58:58;;;;;;;3.22;1.60;;;;;;;;;;5037039;28;20032;-70
2022/08/26 11:01:44;;;;;;;3.63;1.80;;;;;;;;;;5040987;28;20440;-70
2022/08/26 11:04:16;;;;;;;3.08;1.77;;;;;;;;;;5039888;28;20039;-71
2022/08/26 11:06:45;;;;;;;2.65;1.80;;;;;;;;;;5035447;28;20051;-71
2022/08/26 11:09:31;;;;;;;2.25;1.60;;;;;;;;;;5036611;28;20032;-70
2022/08/26 11:11:58;;;;;;;3.58;2.00;;;;;;;;;;5039664;28;20025;-70
2022/08/26 11:14:25;;;;;;;2.33;1.73;;;;;;;;;;5038306;28;20092;-71
2022/08/26 11:16:52;;;;;;;2.88;1.95;;;;;;;;;;5038689;28;20029;-71
2022/08/26 11:19:41;;;;;;;5.30;1.80;;;;;;;;;;5038132;28;20176;-71
2022/08/26 11:22:28;;;;;;;1.85;1.63;;;;;;;;;;5033960;28;20067;-71
2022/08/26 11:24:54;;;;;;;2.55;1.73;;;;;;;;;;5039130;28;20075;-71
2022/08/26 11:27:24;;;;;;;2.47;1.90;;;;;;;;;;5040714;28;20145;-71
2022/08/26 11:29:58;;;;;;;2.95;1.92;;;;;;;;;;5036534;28;20063;-71
2022/08/26 11:32:33;;;;;;;4.47;1.75;;;;;;;;;;5035713;28;20053;-71
2022/08/26 11:35:06;;;;;;;3.83;2.15;;;;;;;;;;5035979;28;20504;-71
2022/08/26 11:37:36;;;;;;;4.60;1.83;;;;;;;;;;5039543;28;20021;-71
2022/08/26 11:40:06;;;;;;;5.90;2.28;;;;;;;;;;5040123;28;20032;-70
2022/08/26 11:42:35;;;;;;;4.80;2.30;;;;;;;;;;5037402;28;20025;-72
2022/08/26 11:45:13;;;;;;;4.78;2.00;;;;;;;;;;5040072;28;20029;-72
2022/08/26 11:47:39;;;;;;;5.00;2.30;;;;;;;;;;5039906;28;20029;-71
2022/08/26 11:50:09;;;;;;;3.78;2.17;;;;;;;;;;5034503;28;20048;-71
2022/08/26 11:52:35;;;;;;;14.37;3.13;;;;;;;;;;5032763;28;20028;-71
2022/08/26 11:55:07;;;;;;;3.90;2.42;;;;;;;;;;5031883;28;20037;-71
2022/08/26 11:57:34;;;;;;;6.70;2.40;;;;;;;;;;5036687;28;20032;-71
2022/08/26 12:00:00;;;;;;;5.10;2.15;;;;;;;;;;5031129;28;20219;-71
2022/08/26 12:02:27;;;;;;;6.00;2.70;;;;;;;;;;5028985;28;20818;-71
2022/08/26 12:04:54;;;;;;;6.15;2.28;;;;;;;;;;5029369;28;20551;-71
2022/08/26 12:07:25;;;;;;;4.20;2.42;;;;;;;;;;5034300;28;20682;-72
2022/08/26 12:09:51;;;;;;;;;;;;;;;;;;5037128;28;20029;-71
2022/08/26 12:12:21;;;;;;;5.78;2.45;;;;;;;;;;5029812;28;19913;-71
2022/08/26 12:14:48;;;;;;;5.03;2.45;;;;;;;;;;5029766;28;20018;-71
2022/08/26 12:17:19;;;;;;;3.70;2.40;;;;;;;;;;5035474;28;20025;-71
2022/08/26 12:19:45;;;;;;;5.95;2.85;;;;;;;;;;5033937;28;20121;-71
2022/08/26 12:22:25;;;;;;;6.18;2.63;;;;;;;;;;5035483;28;20032;-71
2022/08/26 12:25:02;;;;;;;5.20;2.65;;;;;;;;;;5038293;28;20032;-71
2022/08/26 12:27:38;;;;;;;6.20;2.70;;;;;;;;;;5031841;28;20039;-71
2022/08/26 12:30:04;;;;;;;4.57;2.40;;;;;;;;;;5035039;28;20025;-71
2022/08/26 12:32:31;;;;;;;3.67;2.75;;;;;;;;;;5020376;28;20119;-71
2022/08/26 12:34:57;;;;;;;8.07;2.97;;;;;;;;;;5022369;28;20516;-71
2022/08/26 12:37:24;;;;;;;9.45;2.70;;;;;;;;;;5024765;28;20393;-72
2022/08/26 12:39:50;;;;;;;5.05;2.45;;;;;;;;;;5024945;28;20123;-71
2022/08/26 12:42:16;;;;;;;3.55;2.60;;;;;;;;;;5023352;28;20036;-72
2022/08/26 12:44:43;;;;;;;4.47;2.33;;;;;;;;;;5022766;28;20567;-75
2022/08/26 12:47:21;;;;;;;8.32;2.50;;;;;;;;;;5019157;28;20029;-71
2022/08/26 12:49:48;;;;;;;11.80;2.50;;;;;;;;;;5009752;28;20025;-71
2022/08/26 12:52:28;;;;;;;8.13;3.13;;;;;;;;;;5008453;28;20735;-69
2022/08/26 12:55:06;;;;;;;5.07;2.25;;;;;;;;;;5016808;28;20018;-69
2022/08/26 12:57:34;;;;;;;5.78;2.60;;;;;;;;;;5019656;28;20026;-69
2022/08/26 13:00:19;;;;;;;7.30;2.80;;;;;;;;;;5021004;28;20040;-69
2022/08/26 13:02:45;;;;;;;7.15;2.88;;;;;;;;;;5016208;28;20052;-69
2022/08/26 13:05:44;;;;;;;7.97;2.97;;;;;;;;;;5018140;28;20087;-69
2022/08/26 13:08:24;;;;;;;6.97;2.92;;;;;;;;;;5000885;28;20068;-69
2022/08/26 13:11:01;;;;;;;4.70;2.60;;;;;;;;;;5024276;28;20029;-70
2022/08/26 13:13:28;;;;;;;4.60;2.58;;;;;;;;;;5024076;28;20048;-69
2022/08/26 13:15:54;;;;;;;5.55;2.80;;;;;;;;;;5021860;28;20052;-69
2022/08/26 13:18:21;;;;;;;10.23;2.78;;;;;;;;;;5024153;28;20080;-70
2022/08/26 13:20:47;;;;;;;8.25;3.17;;;;;;;;;;5022733;28;20017;-70
2022/08/26 13:23:13;;;;;;;6.03;2.60;;;;;;;;;;5023566;28;20045;-69
2022/08/26 13:25:40;;;;;;;6.45;2.38;;;;;;;;;;5023449;28;20536;-69
2022/08/26 13:28:06;;;;;;;3.05;2.30;;;;;;;;;;5021782;28;20377;-73
2022/08/26 13:30:32;;;;;;;4.63;2.70;;;;;;;;;;5035424;28;20075;-72
2022/08/26 13:33:00;;;;;;;4.72;2.70;;;;;;;;;;5044032;28;20120;-71
2022/08/26 13:35:26;;;;;;;3.97;2.85;;;;;;;;;;5037896;28;20108;-71
2022/08/26 13:37:52;;;;;;;3.03;2.72;;;;;;;;;;5040227;28;20112;-72
2022/08/26 13:40:19;;;;;;;3.13;2.75;;;;;;;;;;5043869;28;20025;-71
2022/08/26 13:42:45;;;;;;;5.50;3.08;;;;;;;;;;5041825;28;20495;-71
2022/08/26 13:45:11;;;;;;;5.50;2.72;;;;;;;;;;5041134;28;20045;-69
2022/08/26 13:47:38;;;;;;;3.30;2.95;;;;;;;;;;5043637;28;20503;-69
2022/08/26 13:50:04;;;;;;;5.88;2.83;;;;;;;;;;5042498;28;20025;-69
2022/08/26 13:52:31;;;;;;;3.58;2.83;;;;;;;;;;5041805;28;20025;-69
2022/08/26 13:54:58;;;;;;;4.18;2.80;;;;;;;;;;5043712;28;20029;-69
2022/08/26 13:57:26;;;;;;;6.00;2.97;;;;;;;;;;5043805;28;20538;-69
2022/08/26 13:59:54;;;;;;;3.30;2.92;;;;;;;;;;5043346;28;20029;-69
2022/08/26 14:02:21;;;;;;;4.57;2.78;;;;;;;;;;5042158;28;20086;-69
2022/08/26 14:04:47;;;;;;;4.50;3.03;;;;;;;;;;5043416;28;20708;-69
2022/08/26 14:07:14;;;;;;;3.03;2.72;;;;;;;;;;5043618;28;20037;-69
2022/08/26 14:09:40;;;;;;;4.63;2.90;;;;;;;;;;5043207;28;20495;-69
2022/08/26 14:12:06;;;;;;;2.92;2.60;;;;;;;;;;5041952;28;20032;-70
2022/08/26 14:14:32;;;;;;;4.30;3.20;;;;;;;;;;5043019;28;20463;-70
2022/08/26 14:16:59;;;;;;;5.28;3.35;;;;;;;;;;5043053;28;20060;-70
2022/08/26 14:19:25;;;;;;;5.07;2.92;;;;;;;;;;5042981;28;20025;-70
2022/08/26 14:21:51;;;;;;;5.90;2.83;;;;;;;;;;5043106;28;20033;-70
2022/08/26 14:24:17;;;;;;;4.07;3.20;;;;;;;;;;5043216;28;20017;-70
2022/08/26 14:26:47;;;;;;;3.67;2.75;;;;;;;;;;5041736;28;20028;-70
2022/08/26 14:29:14;;;;;;;8.48;2.92;;;;;;;;;;5042959;28;20017;-70
2022/08/26 14:31:40;;;;;;;3.72;2.97;;;;;;;;;;5042079;28;20052;-70
2022/08/26 14:34:08;;;;;;;4.22;2.92;;;;;;;;;;5042576;28;20109;-70
2022/08/26 14:36:35;;;;;;;3.67;2.60;;;;;;;;;;5042702;28;20110;-70
2022/08/26 14:39:05;;;;;;;5.78;3.03;;;;;;;;;;5029756;28;20028;-70
2022/08/26 14:41:33;;;;;;;3.67;2.73;;;;;;;;;;5030761;28;20037;-70
2022/08/26 14:44:03;;;;;;;6.72;3.03;;;;;;;;;;5042281;28;20112;-70
2022/08/26 14:46:31;;;;;;;4.93;3.08;;;;;;;;;;5042463;28;20405;-70
2022/08/26 14:48:58;;;;;;;4.82;2.80;;;;;;;;;;5041382;28;20013;-70
2022/08/26 14:51:24;;;;;;;4.25;3.00;;;;;;;;;;5040133;28;20590;-71
2022/08/26 14:56:37;;;;;;;5.65;3.10;;;;;;;;;;5042571;28;20036;-70
2022/08/26 14:59:04;;;;;;;6.80;3.03;;;;;;;;;;5042207;28;20112;-70
2022/08/26 15:01:31;;;;;;;4.18;3.22;;;;;;;;;;5042242;28;20025;-70
2022/08/26 15:03:58;;;;;;;5.00;3.20;;;;;;;;;;5042267;28;20059;-70
2022/08/26 15:06:24;;;;;;;4.97;3.05;;;;;;;;;;5040741;28;20079;-70
2022/08/26 15:08:50;;;;;;;3.28;2.85;;;;;;;;;;5042419;28;20075;-71
2022/08/26 15:11:19;;;;;;;4.82;3.00;;;;;;;;;;5042308;28;20025;-71
2022/08/26 15:13:46;;;;;;;3.53;2.90;;;;;;;;;;5042398;28;20471;-71
2022/08/26 15:16:12;;;;;;;5.18;2.92;;;;;;;;;;5042204;28;20048;-70
2022/08/26 15:18:39;;;;;;;8.27;3.13;;;;;;;;;;5040567;28;20067;-70
2022/08/26 15:21:06;;;;;;;4.43;2.97;;;;;;;;;;5040954;28;20078;-70